Time;durP1;ratioP1;P1;durP2;ratioP2;P2;SDS_P1;SDS_P2;PMS_P1;PMS_P2;Temp;Humidity;BMP_temperature;BMP_pressure;BME280_temperature;BME280_humidity;BME280_pressure;Samples;Min_cycle;Max_cycle;Signal;HPM_P1;HPM_P2
2022/08/29 00:00:13;;;;;;;14.40;10.13;;;28.10;99.90;;;;;;1945035;72;21186;-69
2022/08/29 00:02:48;;;;;;;15.18;9.68;;;28.20;99.90;;;;;;1926044;71;21260;-70
2022/08/29 00:05:21;;;;;;;14.85;9.40;;;28.20;99.90;;;;;;1932237;72;21748;-71
2022/08/29 00:07:53;;;;;;;12.47;8.40;;;28.20;99.90;;;;;;1916254;73;21103;-73
2022/08/29 00:10:28;;;;;;;11.12;8.15;;;28.30;99.90;;;;;;1936708;72;21142;-70
2022/08/29 00:13:00;;;;;;;10.45;8.08;;;28.30;99.90;;;;;;1894563;74;21767;-70
2022/08/29 00:15:31;;;;;;;11.83;8.33;;;28.40;99.90;;;;;;1932846;72;21770;-71
2022/08/29 00:18:06;;;;;;;14.73;9.53;;;28.40;99.90;;;;;;1927884;73;21566;-71
2022/08/29 00:20:38;;;;;;;12.63;8.33;;;28.40;99.90;;;;;;1929967;72;21781;-71
2022/08/29 00:23:20;;;;;;;14.40;8.88;;;28.50;99.90;;;;;;1934347;72;21173;-70
2022/08/29 00:25:53;;;;;;;16.42;9.73;;;28.60;99.90;;;;;;1935798;72;21206;-71
2022/08/29 00:28:24;;;;;;;17.85;10.85;;;28.70;99.90;;;;;;1925005;72;21148;-73
2022/08/29 00:30:55;;;;;;;13.40;9.18;;;28.70;99.90;;;;;;1937180;72;22041;-72
2022/08/29 00:33:26;;;;;;;16.32;9.60;;;28.80;99.90;;;;;;1938015;73;21895;-72
2022/08/29 00:35:58;;;;;;;14.58;10.68;;;28.80;99.90;;;;;;1942922;72;21894;-72
2022/08/29 00:38:30;;;;;;;12.35;9.30;;;28.90;99.90;;;;;;1963419;71;21214;-71
2022/08/29 00:41:03;;;;;;;13.95;9.70;;;28.90;99.90;;;;;;1963537;72;21158;-72
2022/08/29 00:43:39;;;;;;;13.58;9.38;;;28.90;99.90;;;;;;1992512;70;21144;-71
2022/08/29 00:46:18;;;;;;;13.98;9.80;;;29.00;99.90;;;;;;1979314;71;21586;-72
2022/08/29 00:48:52;;;;;;;14.70;9.73;;;29.10;99.90;;;;;;1976120;71;21672;-73
2022/08/29 00:51:24;;;;;;;16.55;10.23;;;29.00;99.90;;;;;;1929943;72;21483;-72
2022/08/29 00:53:58;;;;;;;16.07;10.20;;;29.10;99.90;;;;;;1973098;71;21602;-72
2022/08/29 00:56:29;;;;;;;15.40;9.60;;;29.20;99.90;;;;;;1969156;71;22217;-72
2022/08/29 00:59:02;;;;;;;12.90;9.43;;;29.30;99.90;;;;;;1983819;71;21145;-73
2022/08/29 01:01:33;;;;;;;14.83;8.75;;;29.30;99.90;;;;;;1974893;71;21209;-72
2022/08/29 01:04:09;;;;;;;15.23;8.63;;;29.30;99.90;;;;;;1958357;72;21555;-72
2022/08/29 01:06:43;;;;;;;15.88;10.13;;;29.30;99.90;;;;;;1964040;71;21196;-73
2022/08/29 01:09:15;;;;;;;11.48;9.23;;;29.40;99.90;;;;;;1967088;71;21194;-73
2022/08/29 01:14:24;;;;;;;12.10;8.08;;;29.50;99.90;;;;;;1967495;72;21587;-70
2022/08/29 01:16:57;;;;;;;12.53;8.70;;;29.50;99.90;;;;;;1979129;71;21108;-70
2022/08/29 01:19:31;;;;;;;13.43;7.95;;;29.50;99.90;;;;;;1961715;71;21123;-72
2022/08/29 01:22:04;;;;;;;9.78;7.53;;;29.50;99.90;;;;;;1914893;73;21151;-71
2022/08/29 01:24:36;;;;;;;12.90;7.90;;;29.50;99.90;;;;;;1985826;70;21719;-71
2022/08/29 01:27:09;;;;;;;12.18;8.60;;;29.60;99.90;;;;;;1959048;71;21559;-72
2022/08/29 01:29:40;;;;;;;11.55;8.33;;;29.60;99.90;;;;;;1945028;72;21130;-71
2022/08/29 01:32:11;;;;;;;10.20;7.50;;;29.60;99.90;;;;;;1977536;71;21103;-71
2022/08/29 01:34:44;;;;;;;14.00;7.70;;;29.60;99.90;;;;;;1980639;71;21623;-70
2022/08/29 01:37:20;;;;;;;7.80;5.80;;;29.70;99.80;;;;;;1966746;71;21235;-71
2022/08/29 01:39:55;;;;;;;9.53;6.72;;;29.80;99.30;;;;;;1956645;72;21218;-70
2022/08/29 01:42:30;;;;;;;10.50;7.12;;;29.80;99.50;;;;;;1967161;71;21142;-70
2022/08/29 01:45:04;;;;;;;8.68;6.33;;;29.80;99.30;;;;;;1984977;71;21163;-70
2022/08/29 01:47:37;;;;;;;9.83;6.03;;;29.90;99.30;;;;;;1982537;71;21214;-71
2022/08/29 01:50:11;;;;;;;13.68;5.62;;;29.80;99.00;;;;;;1953102;72;21080;-71
2022/08/29 01:52:43;;;;;;;5.58;2.30;;;29.80;98.60;;;;;;1980291;71;21108;-71
2022/08/29 01:55:14;;;;;;;6.78;2.22;;;29.70;96.60;;;;;;1984659;71;21131;-71
2022/08/29 01:57:45;;;;;;;8.55;2.10;;;29.50;96.60;;;;;;1987780;71;21612;-70
2022/08/29 02:00:17;;;;;;;7.50;1.80;;;29.20;96.70;;;;;;1971386;71;21955;-72
2022/08/29 02:02:48;;;;;;;5.72;1.72;;;29.00;97.60;;;;;;1976616;71;21124;-70
2022/08/29 02:05:21;;;;;;;3.65;1.82;;;28.80;97.50;;;;;;1967251;72;21116;-71
2022/08/29 02:07:52;;;;;;;3.92;1.55;;;28.70;97.20;;;;;;1929327;72;21085;-71
2022/08/29 02:10:24;;;;;;;15.18;3.25;;;28.60;97.80;;;;;;1920988;73;21756;-72
2022/08/29 02:12:56;;;;;;;15.15;2.50;;;28.60;97.70;;;;;;1929694;73;21408;-72
2022/08/29 02:15:27;;;;;;;6.25;1.15;;;28.60;97.70;;;;;;1886564;75;21135;-72
2022/08/29 02:17:58;;;;;;;3.12;1.15;;;28.70;97.70;;;;;;1916293;74;21541;-73
2022/08/29 02:20:28;;;;;;;3.55;1.17;;;28.70;97.20;;;;;;1909873;74;21093;-73
2022/08/29 02:23:00;;;;;;;2.33;0.90;;;28.60;97.00;;;;;;1904344;74;21700;-73
2022/08/29 02:25:40;;;;;;;1.95;1.00;;;28.50;97.40;;;;;;1928078;72;21163;-73
2022/08/29 02:28:03;;;;;;;2.20;1.12;;;28.50;97.30;;;;;;1901838;74;21217;-71
2022/08/29 02:30:34;;;;;;;5.55;1.30;;;28.50;97.90;;;;;;1899048;73;21782;-71
2022/08/29 02:33:06;;;;;;;3.17;1.00;;;28.70;97.70;;;;;;1908705;73;21551;-72
2022/08/29 02:35:37;;;;;;;2.42;1.10;;;28.80;97.70;;;;;;1952110;71;21073;-71
2022/08/29 02:38:10;;;;;;;2.60;0.72;;;28.90;97.40;;;;;;1982657;71;21670;-72
2022/08/29 02:40:43;;;;;;;1.95;1.00;;;29.20;97.40;;;;;;1975439;71;21172;-71
2022/08/29 02:43:16;;;;;;;3.30;1.02;;;29.30;97.10;;;;;;1947368;71;21183;-72
2022/08/29 02:45:47;;;;;;;3.00;0.98;;;29.40;96.80;;;;;;1977927;71;21595;-73
2022/08/29 02:48:19;;;;;;;4.12;1.30;;;29.60;96.20;;;;;;1965161;71;21948;-73
2022/08/29 02:50:52;;;;;;;3.52;1.47;;;29.70;96.20;;;;;;1944240;72;21192;-72
2022/08/29 02:53:26;;;;;;;3.20;1.30;;;29.90;96.00;;;;;;1983954;71;21624;-72
2022/08/29 02:55:58;;;;;;;3.47;1.07;;;30.00;95.90;;;;;;1964394;71;21661;-72
2022/08/29 02:58:29;;;;;;;3.72;1.27;;;30.20;95.60;;;;;;1965494;71;21124;-72
2022/08/29 03:01:00;;;;;;;3.30;1.17;;;30.30;95.70;;;;;;1969192;71;21650;-71
2022/08/29 03:03:36;;;;;;;3.10;1.20;;;30.50;95.30;;;;;;1956142;72;21658;-71
2022/08/29 03:06:05;;;;;;;2.77;1.30;;;30.70;95.10;;;;;;1957394;72;21653;-71
2022/08/29 03:08:37;;;;;;;4.47;1.37;;;30.90;95.00;;;;;;1948261;72;21547;-71
2022/08/29 03:11:08;;;;;;;4.00;1.95;;;31.00;94.40;;;;;;1976697;70;21091;-72
2022/08/29 03:13:39;;;;;;;3.58;1.40;;;31.20;94.50;;;;;;1988244;71;21497;-71
2022/08/29 03:16:10;;;;;;;3.67;1.60;;;31.30;94.10;;;;;;1972742;71;21125;-72
2022/08/29 03:18:41;;;;;;;2.80;1.57;;;31.40;93.80;;;;;;1918609;74;21238;-71
2022/08/29 03:21:14;;;;;;;3.62;1.40;;;31.50;93.80;;;;;;1908470;72;21145;-71
2022/08/29 03:23:46;;;;;;;3.08;1.70;;;31.60;93.90;;;;;;1926061;74;21051;-71
2022/08/29 03:26:20;;;;;;;3.65;1.60;;;31.60;93.10;;;;;;1967741;72;21232;-72
2022/08/29 03:28:51;;;;;;;3.65;1.60;;;31.80;94.00;;;;;;1970772;72;21119;-71
2022/08/29 03:31:23;;;;;;;3.30;1.45;;;31.90;93.40;;;;;;1968190;71;22372;-71
2022/08/29 03:33:55;;;;;;;5.85;1.90;;;31.90;93.20;;;;;;1944056;71;21127;-71
2022/08/29 03:36:26;;;;;;;3.05;1.95;;;32.00;93.30;;;;;;1946415;71;21683;-71
2022/08/29 03:38:57;;;;;;;3.77;1.82;;;32.00;93.10;;;;;;1957236;72;21591;-73
2022/08/29 03:41:29;;;;;;;2.20;1.57;;;32.20;93.20;;;;;;1939999;72;21107;-71
2022/08/29 03:44:00;;;;;;;2.72;1.98;;;32.20;92.60;;;;;;1946297;72;21654;-72
2022/08/29 03:46:31;;;;;;;2.75;1.52;;;32.30;92.30;;;;;;1940987;71;21137;-70
2022/08/29 03:49:04;;;;;;;3.35;1.70;;;32.20;92.50;;;;;;1984055;71;21261;-70
2022/08/29 03:51:37;;;;;;;3.83;2.02;;;32.20;92.60;;;;;;1974785;71;21205;-71
2022/08/29 03:54:17;;;;;;;3.62;2.00;;;32.30;93.50;;;;;;1958934;72;21180;-72
2022/08/29 03:57:08;;;;;;;6.97;3.58;;;32.30;92.20;;;;;;1897522;72;21651;-70
2022/08/29 03:59:39;;;;;;;4.80;2.47;;;32.30;92.10;;;;;;1963595;72;21163;-71
2022/08/29 04:02:10;;;;;;;3.75;2.10;;;32.40;92.50;;;;;;1962374;72;21695;-71
2022/08/29 04:07:14;;;;;;;3.00;1.98;;;32.40;92.80;;;;;;1968469;71;21112;-72
2022/08/29 04:09:45;;;;;;;3.58;1.77;;;32.40;92.10;;;;;;1971668;72;21142;-72
2022/08/29 04:12:16;;;;;;;3.05;1.70;;;32.40;92.40;;;;;;1945737;72;21064;-72
2022/08/29 04:14:46;;;;;;;5.05;1.70;;;32.40;92.00;;;;;;1972431;72;21076;-72
2022/08/29 04:17:17;;;;;;;2.27;1.40;;;32.40;92.00;;;;;;1964515;72;21664;-72
2022/08/29 04:19:51;;;;;;;3.62;1.47;;;32.50;92.40;;;;;;1946849;72;21567;-73
2022/08/29 04:22:33;;;;;;;2.62;1.70;;;32.40;91.60;;;;;;1968225;71;21640;-72
2022/08/29 04:25:09;;;;;;;2.25;1.57;;;32.50;91.20;;;;;;1969965;70;21951;-71
2022/08/29 04:27:41;;;;;;;2.85;1.80;;;32.50;91.20;;;;;;1969124;71;21633;-71
2022/08/29 04:30:14;;;;;;;3.20;1.62;;;32.60;91.60;;;;;;1986045;71;21639;-70
2022/08/29 04:32:46;;;;;;;3.10;1.95;;;32.60;91.20;;;;;;1948229;72;21583;-71
2022/08/29 04:35:21;;;;;;;3.10;1.72;;;32.60;90.20;;;;;;1953771;72;21578;-71
2022/08/29 04:37:53;;;;;;;4.03;1.65;;;32.60;91.80;;;;;;1955478;71;21091;-70
2022/08/29 04:40:24;;;;;;;4.20;1.70;;;32.60;92.40;;;;;;1983301;71;21225;-71
2022/08/29 04:42:56;;;;;;;4.65;2.10;;;32.40;92.00;;;;;;1934477;72;21073;-71
2022/08/29 04:45:34;;;;;;;4.90;1.40;;;32.30;92.80;;;;;;1909688;74;21674;-71
2022/08/29 04:48:07;;;;;;;3.15;1.50;;;32.20;93.40;;;;;;1920578;74;21239;-71
2022/08/29 04:50:38;;;;;;;3.00;1.40;;;32.10;93.20;;;;;;1906462;73;21515;-72
2022/08/29 04:53:11;;;;;;;2.98;1.40;;;31.90;93.40;;;;;;1985412;70;21290;-72
2022/08/29 04:55:42;;;;;;;8.13;1.77;;;31.80;93.50;;;;;;1908672;73;21148;-72
2022/08/29 04:58:13;;;;;;;5.95;2.35;;;31.70;93.80;;;;;;1902788;74;21124;-72
2022/08/29 05:00:45;;;;;;;2.62;1.40;;;31.60;94.00;;;;;;1897962;73;21096;-71
2022/08/29 05:03:16;;;;;;;5.65;1.87;;;31.50;94.40;;;;;;1915253;73;21503;-71
2022/08/29 05:05:48;;;;;;;5.08;1.60;;;31.60;94.20;;;;;;1917852;73;21933;-71
2022/08/29 05:08:19;;;;;;;5.70;1.80;;;31.60;94.00;;;;;;1959605;72;21087;-71
2022/08/29 05:10:50;;;;;;;5.58;1.70;;;31.60;93.70;;;;;;1958185;72;21115;-70
2022/08/29 05:13:22;;;;;;;3.77;1.52;;;31.70;93.30;;;;;;1967271;71;21171;-71
2022/08/29 05:15:53;;;;;;;4.10;1.70;;;31.70;93.40;;;;;;1964539;70;21134;-70
2022/08/29 05:18:24;;;;;;;4.40;1.50;;;31.80;93.40;;;;;;1994776;70;21552;-72
2022/08/29 05:20:54;;;;;;;2.67;1.42;;;32.00;93.10;;;;;;1967369;71;21115;-72
2022/08/29 05:23:26;;;;;;;6.97;1.75;;;32.10;93.10;;;;;;1970544;71;21600;-72
2022/08/29 05:25:59;;;;;;;4.20;1.80;;;32.20;93.10;;;;;;1980402;71;21272;-72
2022/08/29 05:28:32;;;;;;;3.47;1.62;;;32.20;93.30;;;;;;1975140;71;21737;-72
2022/08/29 05:31:03;;;;;;;2.17;1.20;;;32.20;93.20;;;;;;1975833;71;21702;-72
2022/08/29 05:33:34;;;;;;;3.60;1.67;;;32.10;92.70;;;;;;1964279;72;21057;-72
2022/08/29 05:36:06;;;;;;;2.25;1.50;;;32.10;92.80;;;;;;1957858;71;21296;-72
2022/08/29 05:38:39;;;;;;;2.95;1.85;;;32.20;92.50;;;;;;1964958;71;21162;-72
2022/08/29 05:41:11;;;;;;;3.05;1.87;;;32.20;92.40;;;;;;1954912;72;21643;-71
2022/08/29 05:43:42;;;;;;;3.15;1.80;;;32.20;92.40;;;;;;1978091;70;21199;-72
2022/08/29 05:46:13;;;;;;;3.40;1.70;;;32.20;92.30;;;;;;1966567;71;21191;-72
2022/08/29 05:48:45;;;;;;;3.35;1.65;;;32.10;92.30;;;;;;1957141;72;21319;-70
2022/08/29 05:51:18;;;;;;;3.55;2.15;;;32.00;92.40;;;;;;1968025;71;21117;-72
2022/08/29 05:53:50;;;;;;;2.72;1.30;;;32.00;92.50;;;;;;1968297;71;21748;-71
2022/08/29 05:56:23;;;;;;;3.67;1.85;;;31.90;92.40;;;;;;1967015;71;21162;-72
2022/08/29 05:58:55;;;;;;;3.77;1.80;;;31.80;92.70;;;;;;2011497;71;21587;-71
2022/08/29 06:01:29;;;;;;;3.30;1.90;;;31.80;92.80;;;;;;1976881;71;21575;-72
2022/08/29 06:04:02;;;;;;;4.92;1.77;;;31.80;92.60;;;;;;1963007;72;21196;-72
2022/08/29 06:06:33;;;;;;;3.87;2.00;;;31.90;93.00;;;;;;1954195;72;21545;-72
2022/08/29 06:09:05;;;;;;;3.95;2.22;;;31.90;92.30;;;;;;1967692;71;22244;-72
2022/08/29 06:11:36;;;;;;;4.42;2.10;;;32.00;91.80;;;;;;1993860;71;21629;-72
2022/08/29 06:14:07;;;;;;;3.40;1.95;;;32.00;91.80;;;;;;1960678;71;21877;-72
2022/08/29 06:16:38;;;;;;;4.15;2.30;;;32.10;91.50;;;;;;1965017;72;21205;-72
2022/08/29 06:19:10;;;;;;;3.77;2.20;;;32.20;91.60;;;;;;1965249;72;21138;-72
2022/08/29 06:21:42;;;;;;;3.30;2.05;;;32.20;91.60;;;;;;1967276;72;21551;-71
2022/08/29 06:24:13;;;;;;;3.30;2.12;;;32.20;91.20;;;;;;1962310;72;21123;-71
2022/08/29 06:26:45;;;;;;;2.15;1.60;;;32.20;91.20;;;;;;1967047;72;21194;-70
2022/08/29 06:29:18;;;;;;;3.37;1.92;;;32.10;91.20;;;;;;1950603;71;21107;-72
2022/08/29 06:31:49;;;;;;;2.83;2.20;;;32.10;91.00;;;;;;1947024;72;21189;-71
2022/08/29 06:34:20;;;;;;;4.28;2.50;;;32.00;90.80;;;;;;1960197;72;21123;-72
2022/08/29 06:36:51;;;;;;;4.28;2.25;;;32.00;90.60;;;;;;1962378;72;21591;-72
2022/08/29 06:39:23;;;;;;;3.92;2.60;;;32.10;90.50;;;;;;1949791;72;22267;-71
2022/08/29 06:41:57;;;;;;;3.00;2.20;;;32.10;90.30;;;;;;1950433;72;21147;-72
2022/08/29 06:44:30;;;;;;;5.30;2.50;;;32.10;90.40;;;;;;1951426;72;21161;-72
2022/08/29 06:47:00;;;;;;;3.75;2.42;;;32.20;91.10;;;;;;1974595;72;21248;-72
2022/08/29 06:49:33;;;;;;;3.08;2.30;;;32.30;91.40;;;;;;1976905;72;21608;-72
2022/08/29 06:52:07;;;;;;;3.72;2.60;;;32.40;91.20;;;;;;1949764;71;21193;-72
2022/08/29 06:54:38;;;;;;;3.40;2.45;;;32.60;90.50;;;;;;1953704;72;21578;-72
2022/08/29 06:57:14;;;;;;;5.05;2.22;;;32.70;88.90;;;;;;1962893;72;21878;-72
2022/08/29 06:59:52;;;;;;;3.00;2.50;;;32.90;90.00;;;;;;1925272;73;21085;-71
2022/08/29 07:02:32;;;;;;;4.85;2.33;;;33.00;88.30;;;;;;1935572;72;21188;-71
2022/08/29 07:05:15;;;;;;;4.60;2.40;;;33.00;88.70;;;;;;1945459;72;21211;-71
2022/08/29 07:07:49;;;;;;;5.17;2.50;;;32.90;89.40;;;;;;1916253;73;21549;-71
2022/08/29 07:10:20;;;;;;;5.78;3.22;;;32.90;89.60;;;;;;1981257;70;21666;-72
2022/08/29 07:12:53;;;;;;;4.03;2.80;;;32.80;88.50;;;;;;1960202;72;21748;-71
2022/08/29 07:15:24;;;;;;;4.92;3.00;;;32.90;87.90;;;;;;1976609;71;21099;-72
2022/08/29 07:17:59;;;;;;;5.45;2.72;;;32.90;88.40;;;;;;1944917;72;21212;-72
2022/08/29 07:20:31;;;;;;;4.22;3.20;;;32.90;86.70;;;;;;1973923;71;21547;-70
2022/08/29 07:23:01;;;;;;;5.92;2.72;;;32.90;87.20;;;;;;1976330;72;21142;-71
2022/08/29 07:25:32;;;;;;;10.20;3.30;;;33.00;87.30;;;;;;1940198;72;21635;-71
2022/08/29 07:28:06;;;;;;;4.10;3.00;;;32.90;87.40;;;;;;1969022;72;21747;-71
2022/08/29 07:30:42;;;;;;;5.03;2.95;;;32.90;88.20;;;;;;1970881;72;21654;-73
2022/08/29 07:33:17;;;;;;;6.87;3.40;;;32.90;87.50;;;;;;1950542;72;21164;-71
2022/08/29 07:35:50;;;;;;;5.95;2.80;;;32.90;87.30;;;;;;1977029;72;21821;-70
2022/08/29 07:38:29;;;;;;;4.15;2.92;;;32.90;87.70;;;;;;1960653;71;21072;-72
2022/08/29 07:41:03;;;;;;;6.65;3.25;;;33.00;87.20;;;;;;1961349;72;21129;-72
2022/08/29 07:43:35;;;;;;;4.60;2.87;;;33.10;86.40;;;;;;1908534;73;21590;-71
2022/08/29 07:46:08;;;;;;;4.45;2.67;;;33.10;87.00;;;;;;1897292;74;21072;-70
2022/08/29 07:48:42;;;;;;;5.00;2.90;;;33.20;87.10;;;;;;1894232;74;21734;-71
2022/08/29 07:51:29;;;;;;;5.35;3.55;;;33.10;86.60;;;;;;1899187;74;21143;-72
2022/08/29 07:54:03;;;;;;;4.58;3.10;;;33.10;85.70;;;;;;1881929;74;21115;-72
2022/08/29 07:56:40;;;;;;;5.65;3.15;;;33.00;86.40;;;;;;1904781;73;21167;-72
2022/08/29 07:59:13;;;;;;;3.02;2.58;;;33.00;88.10;;;;;;1930848;72;22040;-72
2022/08/29 08:01:44;;;;;;;4.87;2.37;;;32.90;87.20;;;;;;1860197;75;21174;-72
2022/08/29 08:04:19;;;;;;;5.75;3.27;;;32.90;85.90;;;;;;1942334;72;21102;-71
2022/08/29 08:06:54;;;;;;;4.03;2.80;;;32.90;85.20;;;;;;1926425;74;21651;-71
2022/08/29 08:09:25;;;;;;;4.47;2.87;;;32.90;86.30;;;;;;1916936;74;21572;-71
2022/08/29 08:11:56;;;;;;;4.80;2.90;;;33.00;84.40;;;;;;1990659;71;21127;-71
2022/08/29 08:14:27;;;;;;;4.15;2.77;;;32.90;83.50;;;;;;1996940;71;21197;-71
2022/08/29 08:17:00;;;;;;;4.70;2.92;;;32.90;83.60;;;;;;2007257;71;21135;-71
2022/08/29 08:19:31;;;;;;;3.72;2.72;;;33.00;83.80;;;;;;1968307;71;21186;-71
2022/08/29 08:22:01;;;;;;;4.40;2.90;;;33.00;83.60;;;;;;1997329;71;21190;-71
2022/08/29 08:24:32;;;;;;;10.03;4.37;;;33.00;84.40;;;;;;1969457;71;21151;-71
2022/08/29 08:27:03;;;;;;;6.03;3.42;;;33.10;84.10;;;;;;1972531;72;21205;-72
2022/08/29 08:29:34;;;;;;;5.40;2.60;;;33.10;85.30;;;;;;1942561;72;21790;-71
2022/08/29 08:32:05;;;;;;;3.72;2.35;;;33.20;84.10;;;;;;1958466;72;21081;-70
2022/08/29 08:34:36;;;;;;;5.08;2.22;;;33.20;84.50;;;;;;1975702;72;21217;-72
2022/08/29 08:37:08;;;;;;;4.40;2.25;;;33.20;82.60;;;;;;1960402;71;21142;-72
2022/08/29 08:39:41;;;;;;;4.12;2.22;;;33.30;82.40;;;;;;1975265;72;21079;-74
2022/08/29 08:42:16;;;;;;;2.65;2.20;;;33.20;82.50;;;;;;1949348;72;21164;-71
2022/08/29 08:44:51;;;;;;;3.90;2.87;;;33.20;84.80;;;;;;1973456;72;21149;-71
2022/08/29 08:47:25;;;;;;;5.33;2.40;;;33.20;82.50;;;;;;1970913;71;21593;-71
2022/08/29 08:49:59;;;;;;;4.22;2.90;;;33.20;83.40;;;;;;1936037;71;21759;-72
2022/08/29 08:52:31;;;;;;;3.87;3.37;;;33.20;83.90;;;;;;1981382;72;21242;-72
2022/08/29 08:55:04;;;;;;;4.53;2.90;;;33.20;84.30;;;;;;1941181;73;21212;-71
2022/08/29 08:57:38;;;;;;;4.28;2.77;;;33.20;85.60;;;;;;1940239;73;21061;-71
2022/08/29 09:00:11;;;;;;;5.67;2.65;;;33.10;85.00;;;;;;1916206;73;21204;-72
2022/08/29 09:02:44;;;;;;;6.40;2.70;;;33.00;84.10;;;;;;1920214;73;21172;-71
2022/08/29 09:05:18;;;;;;;5.50;2.58;;;33.00;84.40;;;;;;1931977;72;21706;-71
2022/08/29 09:07:50;;;;;;;4.25;1.90;;;33.00;84.40;;;;;;1941199;73;21555;-71
2022/08/29 09:10:29;;;;;;;4.28;2.02;;;33.00;82.80;;;;;;1890297;74;21162;-71
2022/08/29 09:13:14;;;;;;;5.58;1.92;;;32.90;81.10;;;;;;1898208;74;21136;-70
2022/08/29 09:15:50;;;;;;;3.22;1.70;;;32.60;80.40;;;;;;1893645;74;21131;-71
2022/08/29 09:18:23;;;;;;;4.50;1.80;;;32.50;80.80;;;;;;1881930;75;21574;-71
2022/08/29 09:20:55;;;;;;;4.22;2.00;;;32.30;80.80;;;;;;1904817;74;21271;-72
2022/08/29 09:23:33;;;;;;;3.80;1.72;;;32.10;81.70;;;;;;1932268;73;22350;-71
2022/08/29 09:26:05;;;;;;;3.60;1.85;;;32.00;82.50;;;;;;1895889;74;21637;-72
2022/08/29 09:28:36;;;;;;;6.15;1.80;;;31.90;82.80;;;;;;1893223;74;21782;-71
2022/08/29 09:31:10;;;;;;;4.30;2.25;;;31.80;83.30;;;;;;1906004;73;21627;-71
2022/08/29 09:33:43;;;;;;;4.35;2.15;;;31.80;83.70;;;;;;1915627;74;21151;-72
2022/08/29 09:36:17;;;;;;;6.45;2.35;;;31.70;84.30;;;;;;1976470;71;21160;-70
2022/08/29 09:38:51;;;;;;;6.22;3.40;;;31.80;85.10;;;;;;1997948;71;21147;-72
2022/08/29 09:41:24;;;;;;;5.87;2.92;;;31.80;84.80;;;;;;1968550;71;21626;-72
2022/08/29 09:43:57;;;;;;;3.67;2.47;;;31.80;85.10;;;;;;1930745;74;21203;-71
2022/08/29 09:46:29;;;;;;;5.03;2.30;;;31.70;84.90;;;;;;1913816;74;21225;-71
2022/08/29 09:49:00;;;;;;;4.08;2.17;;;31.70;85.30;;;;;;1911968;73;21101;-72
2022/08/29 09:51:34;;;;;;;3.42;2.10;;;31.70;86.00;;;;;;1900914;74;21638;-71
2022/08/29 09:54:08;;;;;;;3.45;2.02;;;31.70;86.10;;;;;;1888489;74;21722;-72
2022/08/29 09:56:42;;;;;;;5.28;2.35;;;31.80;86.30;;;;;;1903008;74;21285;-71
2022/08/29 09:59:15;;;;;;;4.58;2.25;;;31.70;86.80;;;;;;1890802;74;21151;-70
2022/08/29 10:01:51;;;;;;;6.00;2.22;;;31.70;86.80;;;;;;1970692;71;21591;-71
2022/08/29 10:04:23;;;;;;;4.70;2.10;;;31.70;87.00;;;;;;1982335;71;21113;-71
2022/08/29 10:06:55;;;;;;;5.58;2.60;;;31.70;87.20;;;;;;1969446;71;21291;-70
2022/08/29 10:09:28;;;;;;;3.87;2.40;;;31.60;87.30;;;;;;1973733;72;21559;-71
2022/08/29 10:12:05;;;;;;;3.85;2.65;;;31.60;87.90;;;;;;1943599;72;21163;-71
2022/08/29 10:14:38;;;;;;;7.50;2.98;;;31.60;89.00;;;;;;1973199;71;21037;-72
2022/08/29 10:19:46;;;;;;;5.58;3.55;;;31.50;88.40;;;;;;1983527;71;21177;-71
2022/08/29 10:22:17;;;;;;;5.30;3.37;;;31.50;88.70;;;;;;1971852;71;21164;-70
2022/08/29 10:24:53;;;;;;;7.95;4.10;;;31.50;88.70;;;;;;1970856;71;21170;-71
2022/08/29 10:27:26;;;;;;;6.20;3.65;;;31.50;88.90;;;;;;1978923;71;21721;-71
2022/08/29 10:29:59;;;;;;;7.83;3.75;;;31.50;88.80;;;;;;1976658;71;21571;-71
2022/08/29 10:32:32;;;;;;;6.35;3.87;;;31.50;89.10;;;;;;1962831;72;21153;-72
2022/08/29 10:35:05;;;;;;;5.97;4.00;;;31.50;89.60;;;;;;1961464;72;21097;-71
2022/08/29 10:37:38;;;;;;;5.62;3.77;;;31.50;90.00;;;;;;2010148;71;21073;-71
2022/08/29 10:40:13;;;;;;;6.03;3.77;;;31.50;90.00;;;;;;2007233;71;21120;-71
2022/08/29 10:42:48;;;;;;;6.05;4.05;;;31.40;90.10;;;;;;1990810;71;21209;-70
2022/08/29 10:45:26;;;;;;;7.45;3.60;;;31.40;90.20;;;;;;1950426;72;21202;-71
2022/08/29 10:47:59;;;;;;;7.45;4.22;;;31.40;90.10;;;;;;1951266;73;21148;-70
2022/08/29 10:50:33;;;;;;;9.48;4.42;;;31.40;90.20;;;;;;1979748;71;21724;-71
2022/08/29 10:53:06;;;;;;;7.25;4.65;;;31.40;90.30;;;;;;1975550;71;21744;-71
2022/08/29 10:55:39;;;;;;;7.53;3.83;;;31.40;90.40;;;;;;1976108;71;21638;-70
2022/08/29 10:58:15;;;;;;;6.33;4.03;;;31.30;90.60;;;;;;1978306;71;21168;-70
2022/08/29 11:00:48;;;;;;;6.47;3.85;;;31.30;90.70;;;;;;1965139;71;21170;-70
2022/08/29 11:03:21;;;;;;;7.67;3.83;;;31.30;90.60;;;;;;1963818;72;21110;-70
2022/08/29 11:05:55;;;;;;;6.37;3.75;;;31.20;90.70;;;;;;1977672;71;21622;-70
2022/08/29 11:08:28;;;;;;;6.92;3.20;;;31.20;90.70;;;;;;1978089;71;21743;-71
2022/08/29 11:11:02;;;;;;;7.00;3.58;;;31.20;90.80;;;;;;1972596;72;21069;-71
2022/08/29 11:13:34;;;;;;;7.70;3.92;;;31.20;90.90;;;;;;1976757;71;21667;-70
2022/08/29 11:16:08;;;;;;;6.40;3.83;;;31.20;91.00;;;;;;1952156;72;21533;-71
2022/08/29 11:18:42;;;;;;;7.85;3.80;;;31.10;90.90;;;;;;1973946;71;21574;-70
2022/08/29 11:21:15;;;;;;;7.22;4.05;;;31.10;90.90;;;;;;1973640;71;21161;-70
2022/08/29 11:23:48;;;;;;;6.10;4.12;;;31.10;90.90;;;;;;1957172;71;21272;-71
2022/08/29 11:26:21;;;;;;;8.63;3.90;;;31.10;91.10;;;;;;1975675;71;21188;-71
2022/08/29 11:28:56;;;;;;;8.63;4.90;;;31.00;91.20;;;;;;1929704;72;21592;-71
2022/08/29 11:31:29;;;;;;;9.23;4.85;;;31.00;91.30;;;;;;1932532;72;21639;-71
2022/08/29 11:34:04;;;;;;;11.10;6.80;;;31.00;91.40;;;;;;1928692;73;21692;-70
2022/08/29 11:36:37;;;;;;;11.05;6.25;;;30.90;91.40;;;;;;1919255;72;21137;-70
2022/08/29 11:39:10;;;;;;;10.55;6.92;;;30.90;91.50;;;;;;1934303;73;21091;-70
2022/08/29 11:41:44;;;;;;;13.78;6.17;;;30.90;91.60;;;;;;1922567;72;21862;-72
2022/08/29 11:44:16;;;;;;;9.90;4.67;;;30.70;91.70;;;;;;1880732;75;21115;-72
2022/08/29 11:46:49;;;;;;;11.57;6.42;;;30.70;91.50;;;;;;1922307;73;21191;-71
2022/08/29 11:49:24;;;;;;;14.63;5.40;;;30.60;91.10;;;;;;1920641;73;21207;-72
2022/08/29 11:51:57;;;;;;;9.03;6.25;;;30.60;91.10;;;;;;1910959;72;21732;-69
2022/08/29 11:54:31;;;;;;;15.25;8.03;;;30.50;91.10;;;;;;1918022;73;21178;-70
2022/08/29 11:57:01;;;;;;;13.58;6.60;;;30.40;91.20;;;;;;1982800;70;21547;-70
2022/08/29 11:59:34;;;;;;;11.78;5.12;;;30.40;91.40;;;;;;1962935;72;21099;-71
2022/08/29 12:02:05;;;;;;;10.85;5.75;;;30.30;91.30;;;;;;1975079;71;21105;-71
2022/08/29 12:04:38;;;;;;;8.80;4.80;;;30.30;91.40;;;;;;1980314;71;21065;-71
2022/08/29 12:07:09;;;;;;;7.05;5.00;;;30.30;91.60;;;;;;1973272;71;21622;-71
2022/08/29 12:09:43;;;;;;;9.55;4.72;;;30.20;91.80;;;;;;1972197;71;21221;-71
2022/08/29 12:12:17;;;;;;;11.03;4.47;;;30.20;91.80;;;;;;1975708;71;21123;-71
2022/08/29 12:14:51;;;;;;;6.87;4.17;;;30.20;91.90;;;;;;1959067;71;21171;-71
2022/08/29 12:17:24;;;;;;;9.40;4.25;;;30.20;92.20;;;;;;1970497;71;21662;-71
2022/08/29 12:19:59;;;;;;;8.18;4.70;;;30.10;92.10;;;;;;1972658;71;21536;-70
2022/08/29 12:22:32;;;;;;;10.32;4.85;;;30.10;92.30;;;;;;1961705;71;21522;-71
2022/08/29 12:25:06;;;;;;;7.00;3.95;;;30.10;92.40;;;;;;1967505;71;21619;-70
2022/08/29 12:27:39;;;;;;;10.15;3.72;;;30.10;92.20;;;;;;1977254;71;21144;-71
2022/08/29 12:30:11;;;;;;;9.45;3.50;;;30.00;92.10;;;;;;1950477;71;21084;-70
2022/08/29 12:32:44;;;;;;;8.43;2.95;;;30.00;91.90;;;;;;1960705;71;21598;-71
2022/08/29 12:35:17;;;;;;;6.17;3.27;;;30.00;91.90;;;;;;1897509;74;21532;-71
2022/08/29 12:37:50;;;;;;;7.60;3.80;;;30.00;92.00;;;;;;1906941;74;21277;-70
2022/08/29 12:40:24;;;;;;;7.33;3.67;;;30.00;92.40;;;;;;1894363;74;21184;-71
2022/08/29 12:42:57;;;;;;;6.15;3.27;;;30.00;92.60;;;;;;1908567;74;21115;-71
2022/08/29 12:45:30;;;;;;;5.75;2.90;;;30.00;93.00;;;;;;1920613;73;21100;-70
2022/08/29 12:48:03;;;;;;;6.03;3.72;;;29.90;92.70;;;;;;1918240;74;21185;-71
2022/08/29 12:50:42;;;;;;;5.03;2.98;;;29.90;92.70;;;;;;1970584;71;21699;-70
2022/08/29 12:53:12;;;;;;;7.17;3.30;;;29.90;92.90;;;;;;1971289;71;21595;-71
2022/08/29 12:55:46;;;;;;;8.23;3.47;;;29.80;92.90;;;;;;1970887;71;21138;-71
2022/08/29 12:58:19;;;;;;;7.47;3.80;;;29.70;92.80;;;;;;1957466;71;21112;-71
2022/08/29 13:00:52;;;;;;;14.23;4.50;;;29.70;93.30;;;;;;1967139;70;21127;-70
2022/08/29 13:03:23;;;;;;;9.13;4.62;;;29.60;93.70;;;;;;1965294;72;21856;-71
2022/08/29 13:06:07;;;;;;;9.73;5.65;;;29.50;93.90;;;;;;1981653;71;21602;-71
2022/08/29 13:08:44;;;;;;;8.10;5.30;;;29.40;94.00;;;;;;1965263;71;21064;-70
2022/08/29 13:11:12;;;;;;;11.75;5.22;;;29.30;94.10;;;;;;1964895;71;21220;-72
2022/08/29 13:13:43;;;;;;;10.50;4.45;;;29.40;94.00;;;;;;1952735;72;21179;-84
2022/08/29 13:16:16;;;;;;;8.68;4.87;;;29.40;94.10;;;;;;1933535;72;21210;-84
2022/08/29 13:18:47;;;;;;;8.18;4.55;;;29.50;94.20;;;;;;1956883;71;21315;-85
2022/08/29 13:21:22;;;;;;;7.03;4.42;;;29.50;94.10;;;;;;1906317;73;21256;-83